Time;durP1;ratioP1;P1;durP2;ratioP2;P2;SDS_P1;SDS_P2;PMS_P1;PMS_P2;Temp;Humidity;BMP_temperature;BMP_pressure;BME280_temperature;BME280_humidity;BME280_pressure;Samples;Min_cycle;Max_cycle;Signal;HPM_P1;HPM_P2
2023/10/12 00:01:58;;;;;;;;;10.00;8.67;;;;;21.04;47.51;101038.94;5023040;28;45449;-71
2023/10/12 00:04:45;;;;;;;;;17.67;8.33;;;;;21.09;47.44;101034.31;5036537;28;45459;-69
2023/10/12 00:07:15;;;;;;;;;11.00;7.67;;;;;21.14;47.45;101035.00;5037254;28;45599;-70
2023/10/12 00:10:18;;;;;;;;;8.33;7.00;;;;;21.08;47.50;101003.28;5023481;28;46148;-69
2023/10/12 00:12:36;;;;;;;;;8.33;8.33;;;;;21.22;47.31;101019.63;5033374;28;45296;-68
2023/10/12 00:15:11;;;;;;;;;13.67;10.00;;;;;21.28;47.43;101029.16;5029367;28;45287;-69
2023/10/12 00:17:37;;;;;;;;;9.33;7.33;;;;;21.34;47.61;101032.47;5035759;28;45386;-69
2023/10/12 00:20:08;;;;;;;;;9.33;9.00;;;;;21.36;47.54;101032.41;5020713;28;46100;-68
2023/10/12 00:22:34;;;;;;;;;6.67;6.33;;;;;21.25;47.20;101013.28;5030665;28;45434;-70
2023/10/12 00:24:59;;;;;;;;;8.67;8.00;;;;;21.36;47.51;101029.75;5020842;28;45899;-69
2023/10/12 00:27:26;;;;;;;;;11.33;10.33;;;;;21.42;47.08;101024.19;5035390;28;45749;-71
2023/10/12 00:29:53;;;;;;;;;13.00;9.00;;;;;21.34;47.30;101018.28;5035480;28;45400;-71
2023/10/12 00:32:18;;;;;;;;;9.00;7.00;;;;;21.25;47.40;100999.97;5026327;28;45507;-70
2023/10/12 00:34:53;;;;;;;;;8.33;8.33;;;;;21.38;47.36;101011.91;5031225;28;45478;-72
2023/10/12 00:37:18;;;;;;;;;8.33;8.33;;;;;21.33;47.39;101005.88;5035260;28;45574;-69
2023/10/12 00:40:21;;;;;;;;;13.67;8.33;;;;;21.38;47.55;101018.09;5036272;28;46593;-69
2023/10/12 00:42:51;;;;;;;;;11.00;9.33;;;;;21.29;47.82;101010.47;5022293;28;45359;-71
2023/10/12 00:45:27;;;;;;;;;14.00;10.33;;;;;21.32;47.68;101012.13;5030273;28;45656;-69
2023/10/12 00:48:07;;;;;;;;;8.67;7.67;;;;;21.37;47.59;101019.00;5034686;28;45288;-72
2023/10/12 00:50:41;;;;;;;;;10.00;8.67;;;;;21.38;48.00;101012.78;5033579;28;46719;-70
2023/10/12 00:55:46;;;;;;;;;11.67;11.00;;;;;21.22;47.68;101011.63;5030704;28;45465;-69
2023/10/12 00:58:14;;;;;;;;;16.33;11.33;;;;;21.10;48.11;101023.59;5034948;28;45458;-72
2023/10/12 01:00:45;;;;;;;;;11.00;10.67;;;;;20.78;48.72;100979.50;5045292;28;46053;-69
2023/10/12 01:08:43;;;;;;;;;10.33;10.33;;;;;20.94;48.56;101012.63;5032421;28;45667;-70
2023/10/12 01:11:20;;;;;;;;;14.67;9.33;;;;;20.94;48.75;101017.09;5029100;28;45373;-70
2023/10/12 01:16:44;;;;;;;;;9.67;9.67;;;;;20.82;49.26;100993.59;5015756;28;45476;-69
2023/10/12 01:19:10;;;;;;;;;13.00;9.33;;;;;20.65;49.59;100980.91;5018581;28;45567;-71
2023/10/12 01:21:36;;;;;;;;;16.00;12.00;;;;;20.69;49.68;100999.38;5018354;28;45466;-68
2023/10/12 01:24:15;;;;;;;;;16.00;13.00;;;;;20.56;49.46;100984.75;5017096;28;45496;-70
2023/10/12 01:26:44;;;;;;;;;16.00;13.33;;;;;20.60;49.55;100988.19;5026892;28;45265;-72
2023/10/12 01:29:22;;;;;;;;;13.00;12.00;;;;;20.48;49.60;100960.19;5040047;28;45401;-69
2023/10/12 01:32:09;;;;;;;;;14.33;8.33;;;;;20.61;49.62;100990.78;5051380;28;45998;-71
2023/10/12 01:34:38;;;;;;;;;10.00;10.00;;;;;20.63;49.82;101002.22;5036554;28;45452;-69
2023/10/12 01:37:11;;;;;;;;;15.00;12.67;;;;;20.56;49.71;100999.84;5039420;28;45410;-70
2023/10/12 01:39:39;;;;;;;;;12.33;11.00;;;;;20.42;49.96;100994.97;5036997;28;45379;-69
2023/10/12 01:42:06;;;;;;;;;10.67;7.00;;;;;20.51;49.83;101002.66;5039622;28;46200;-69
2023/10/12 01:44:32;;;;;;;;;11.33;9.33;;;;;20.55;50.06;100996.28;5037725;28;45263;-69
2023/10/12 01:46:58;;;;;;;;;15.00;8.67;;;;;20.59;50.02;101005.91;5038053;28;45425;-71
2023/10/12 01:49:24;;;;;;;;;13.33;11.33;;;;;20.51;50.27;100982.22;5039438;28;45361;-69
2023/10/12 01:51:49;;;;;;;;;15.33;10.67;;;;;20.45;50.35;100984.22;5038489;28;45512;-69
2023/10/12 01:54:28;;;;;;;;;11.00;11.00;;;;;20.59;49.98;101013.03;5038577;28;45344;-69
2023/10/12 01:56:55;;;;;;;;;13.67;11.00;;;;;20.63;50.10;100996.91;5053993;28;45499;-67
2023/10/12 01:59:34;;;;;;;;;15.00;10.67;;;;;20.63;49.86;100980.09;5038855;28;45607;-69
2023/10/12 02:02:13;;;;;;;;;10.33;9.00;;;;;20.73;49.81;101005.44;5038222;28;46120;-67
2023/10/12 02:04:40;;;;;;;;;11.00;9.33;;;;;20.79;49.57;101007.03;5038049;28;45546;-70
2023/10/12 02:07:10;;;;;;;;;8.33;7.33;;;;;20.75;49.60;101006.25;5038486;28;45368;-69
2023/10/12 02:09:36;;;;;;;;;12.00;10.67;;;;;20.74;50.02;100996.53;5037567;28;46251;-70
2023/10/12 02:12:13;;;;;;;;;11.33;10.67;;;;;20.74;50.08;101002.72;5037072;28;45455;-71
2023/10/12 02:14:42;;;;;;;;;14.67;10.33;;;;;20.71;50.30;101010.78;5038573;28;45654;-69
2023/10/12 02:17:08;;;;;;;;;11.67;9.00;;;;;20.63;50.09;100993.38;5054046;28;45335;-70
2023/10/12 02:19:49;;;;;;;;;11.33;8.33;;;;;20.79;49.81;100999.03;5038891;28;45452;-69
2023/10/12 02:22:24;;;;;;;;;10.33;10.00;;;;;20.73;50.09;101000.09;5037857;28;47182;-69
2023/10/12 02:24:58;;;;;;;;;18.67;8.33;;;;;20.60;50.47;100999.69;5038389;28;45416;-71
2023/10/12 02:27:24;;;;;;;;;12.00;11.33;;;;;20.56;50.43;100975.91;5038736;28;45536;-71
2023/10/12 02:29:53;;;;;;;;;15.33;10.67;;;;;20.72;50.20;101011.69;5038524;28;45522;-70
2023/10/12 02:32:22;;;;;;;;;16.33;9.00;;;;;20.65;50.42;100994.22;5039076;28;45528;-71
2023/10/12 02:34:53;;;;;;;;;15.00;12.33;;;;;20.74;49.95;101008.06;5039423;28;45587;-69
2023/10/12 02:37:19;;;;;;;;;10.00;10.00;;;;;20.81;49.89;101016.69;5039054;28;45449;-70
2023/10/12 02:39:47;;;;;;;;;10.00;8.00;;;;;20.90;49.55;101024.31;5038197;28;45661;-70
2023/10/12 02:44:57;;;;;;;;;9.00;8.33;;;;;20.97;49.79;101009.00;5038031;28;45310;-72
2023/10/12 02:47:40;;;;;;;;;14.33;8.33;;;;;20.85;49.19;100998.78;5038885;28;45463;-70
2023/10/12 02:52:38;;;;;;;;;8.67;5.67;;;;;20.98;49.29;101007.22;5038199;28;46018;-71
2023/10/12 02:55:18;;;;;;;;;9.00;7.00;;;;;20.95;50.16;100985.09;5040290;28;45168;-71
2023/10/12 02:57:53;;;;;;;;;9.67;8.67;;;;;21.01;49.82;100988.47;5039934;28;45444;-73
2023/10/12 03:00:34;;;;;;;;;7.33;7.33;;;;;20.70;50.25;100957.66;5038512;28;45503;-71
2023/10/12 03:03:07;;;;;;;;;11.33;8.67;;;;;20.98;50.36;100996.56;5037163;28;45298;-73
2023/10/12 03:05:45;;;;;;;;;9.33;8.33;;;;;20.96;49.83;101000.16;5029243;28;45347;-70
2023/10/12 03:08:14;;;;;;;;;10.33;9.00;;;;;20.94;49.61;100982.50;5038125;28;45430;-71
2023/10/12 03:13:36;;;;;;;;;9.67;8.00;;;;;20.91;49.92;100975.50;5028355;28;45576;-73
2023/10/12 03:16:24;;;;;;;;;9.33;9.33;;;;;21.07;49.41;100997.09;5038605;28;45357;-73
2023/10/12 03:19:00;;;;;;;;;9.33;9.00;;;;;21.10;49.92;100999.63;5037582;28;45298;-73
2023/10/12 03:21:33;;;;;;;;;9.00;8.33;;;;;21.12;49.65;100992.47;5037290;28;45805;-71
2023/10/12 03:24:02;;;;;;;;;14.33;10.67;;;;;20.89;49.96;100960.50;5040169;28;45594;-73
2023/10/12 03:26:29;;;;;;;;;7.67;7.33;;;;;20.87;49.96;100959.69;5039174;28;45200;-71
2023/10/12 03:29:09;;;;;;;;;14.00;9.67;;;;;20.97;49.91;100990.34;5038836;28;45778;-74
2023/10/12 03:31:57;;;;;;;;;12.67;10.33;;;;;21.14;49.96;100998.59;5039914;28;45466;-73
2023/10/12 03:34:53;;;;;;;;;12.33;10.00;;;;;21.08;50.26;100998.81;5042316;28;45353;-72
2023/10/12 03:37:40;;;;;;;;;13.33;10.33;;;;;20.83;50.54;100985.53;5041494;28;45416;-75
2023/10/12 03:40:49;;;;;;;;;11.33;10.00;;;;;20.86;50.47;100981.91;5044831;28;45349;-74
2023/10/12 03:42:56;;;;;;;;;14.67;10.67;;;;;20.69;51.38;100985.16;5042246;28;45458;-74
2023/10/12 03:45:33;;;;;;;;;10.33;10.33;;;;;20.86;51.13;101016.53;5042218;28;45669;-74
2023/10/12 03:48:22;;;;;;;;;12.00;10.67;;;;;20.45;50.93;100918.56;5041512;28;45412;-75
2023/10/12 03:54:18;;;;;;;;;9.00;9.00;;;;;20.56;50.77;100930.66;5040737;28;45374;-76
2023/10/12 03:56:39;;;;;;;;;10.67;10.00;;;;;20.53;50.91;100915.66;5037764;28;45459;-75
2023/10/12 03:59:06;;;;;;;;;10.00;9.33;;;;;20.90;50.62;100972.88;5039725;28;45447;-73
2023/10/12 04:01:40;;;;;;;;;11.67;9.33;;;;;21.03;50.73;101000.78;5039202;28;45225;-72
2023/10/12 04:09:42;;;;;;;;;10.33;7.67;;;;;21.04;50.72;101009.63;5037780;28;45464;-73
2023/10/12 04:14:54;;;;;;;;;11.00;9.00;;;;;20.99;50.57;100991.16;5037423;28;45303;-75
2023/10/12 04:22:26;;;;;;;;;10.67;7.67;;;;;21.09;50.35;101003.19;5036502;28;45450;-73
2023/10/12 04:24:56;;;;;;;;;14.33;9.00;;;;;20.91;50.49;100979.94;5024222;28;45335;-74
2023/10/12 04:29:57;;;;;;;;;13.00;8.67;;;;;20.85;50.27;100964.19;5037233;28;45460;-74
2023/10/12 04:37:54;;;;;;;;;8.33;8.33;;;;;21.09;50.56;101005.88;5048522;28;45903;-73
2023/10/12 04:40:36;;;;;;;;;11.00;9.67;;;;;20.96;50.76;100985.97;5038315;28;45396;-74
2023/10/12 04:43:06;;;;;;;;;18.00;11.67;;;;;21.07;50.94;101007.75;5039744;28;45338;-73
2023/10/12 04:45:55;;;;;;;;;15.00;9.33;;;;;20.94;51.16;101017.97;5039786;28;45398;-73
2023/10/12 04:48:22;;;;;;;;;13.33;12.33;;;;;20.93;51.60;101023.38;5036970;28;45477;-73
2023/10/12 04:50:52;;;;;;;;;11.67;9.67;;;;;20.87;51.64;101019.13;5029811;28;45497;-74
2023/10/12 04:53:35;;;;;;;;;11.67;10.33;;;;;20.88;51.45;101017.31;5045301;28;45540;-74
2023/10/12 04:56:09;;;;;;;;;11.00;11.00;;;;;20.57;52.00;100981.16;5037943;28;45409;-76
2023/10/12 04:58:36;;;;;;;;;11.00;10.00;;;;;20.73;52.01;101010.75;5019997;28;45688;-74
2023/10/12 05:01:19;;;;;;;;;12.67;8.00;;;;;20.85;51.66;101020.97;5031986;28;45492;-73
2023/10/12 05:04:06;;;;;;;;;13.00;10.33;;;;;20.80;52.11;101004.28;5039853;28;45789;-71
2023/10/12 05:06:33;;;;;;;;;11.67;10.33;;;;;20.73;51.78;100994.78;5039708;28;45669;-72
2023/10/12 05:08:59;;;;;;;;;11.00;9.33;;;;;20.89;51.92;101011.94;5030007;28;46073;-71
2023/10/12 05:11:29;;;;;;;;;14.00;11.00;;;;;20.87;52.11;101020.91;5036434;28;45547;-71
2023/10/12 05:13:55;;;;;;;;;12.33;10.00;;;;;20.73;52.10;100993.00;5046244;28;45362;-73
2023/10/12 05:16:34;;;;;;;;;13.33;11.33;;;;;20.65;52.09;100973.78;5023819;28;45583;-72
2023/10/12 05:19:00;;;;;;;;;11.33;8.67;;;;;20.90;51.92;101007.47;5044671;28;47486;-71
2023/10/12 05:21:27;;;;;;;;;14.00;10.00;;;;;20.83;52.10;101006.81;5019802;28;45882;-73
2023/10/12 05:23:52;;;;;;;;;10.67;10.67;;;;;20.88;52.20;101017.31;5019679;28;45823;-70
2023/10/12 05:26:25;;;;;;;;;12.00;10.33;;;;;20.75;52.18;101011.56;5021387;28;45277;-71
2023/10/12 05:31:39;;;;;;;;;14.67;11.33;;;;;20.85;52.03;101028.09;5020141;28;44831;-71
2023/10/12 05:34:32;;;;;;;;;12.33;9.00;;;;;20.85;52.04;101017.44;5021515;28;45342;-73
2023/10/12 05:37:08;;;;;;;;;14.00;12.00;;;;;20.66;52.67;100998.59;5034492;28;45704;-73
2023/10/12 05:39:43;;;;;;;;;16.00;11.33;;;;;20.69;52.74;101009.13;5031931;28;46374;-72
2023/10/12 05:42:10;;;;;;;;;16.33;12.00;;;;;20.64;52.80;101001.28;5027810;28;45466;-71
2023/10/12 05:44:48;;;;;;;;;3.67;3.00;;;;;20.64;53.11;101005.75;5035574;28;45561;-72
2023/10/12 05:47:17;;;;;;;;;12.00;9.33;;;;;20.50;52.99;100991.13;5019465;28;45407;-72
2023/10/12 05:49:50;;;;;;;;;8.67;6.33;;;;;20.53;53.00;101000.81;5018478;28;45476;-71
2023/10/12 05:52:17;;;;;;;;;13.67;11.00;;;;;20.63;53.02;101025.31;5018544;28;45443;-73
2023/10/12 05:54:43;;;;;;;;;17.00;13.33;;;;;20.61;53.01;101025.38;5028385;28;45946;-73
2023/10/12 05:57:19;;;;;;;;;12.67;12.00;;;;;20.58;53.07;101028.16;5023414;28;45394;-71
2023/10/12 05:59:46;;;;;;;;;12.00;11.33;;;;;20.70;53.15;101043.69;5018485;28;46592;-72
2023/10/12 06:02:13;;;;;;;;;11.67;11.67;;;;;20.66;52.94;101043.84;5018104;28;45366;-72
2023/10/12 06:04:38;;;;;;;;;14.33;13.00;;;;;20.63;53.10;101042.16;5041001;28;45349;-72
2023/10/12 06:07:05;;;;;;;;;14.33;13.00;;;;;20.74;53.00;101061.28;5019875;28;45453;-71
2023/10/12 06:09:40;;;;;;;;;14.00;13.33;;;;;20.64;53.22;101051.00;5032675;28;47655;-73
2023/10/12 06:12:13;;;;;;;;;13.67;12.67;;;;;20.61;53.25;101044.00;5048865;28;45534;-71
2023/10/12 06:14:39;;;;;;;;;15.67;11.33;;;;;20.65;53.31;101056.28;5020084;28;45502;-73
2023/10/12 06:17:06;;;;;;;;;18.00;10.67;;;;;20.76;53.05;101074.53;5019097;28;45489;-73
2023/10/12 06:19:36;;;;;;;;;13.33;12.33;;;;;20.64;53.18;101056.31;5018570;28;45484;-71
2023/10/12 06:22:21;;;;;;;;;16.00;12.00;;;;;20.81;53.18;101091.22;5018206;28;45571;-71
2023/10/12 06:24:52;;;;;;;;;11.67;7.67;;;;;20.69;53.30;101068.56;5024545;28;45790;-72
2023/10/12 06:29:53;;;;;;;;;16.33;12.00;;;;;20.82;53.60;101137.34;5037486;28;45563;-72
2023/10/12 06:32:19;;;;;;;;;15.00;14.00;;;;;20.81;53.74;101162.22;5038765;28;45524;-71
2023/10/12 06:35:13;;;;;;;;;18.00;12.00;;;;;20.81;53.72;101146.25;5037672;28;45404;-72
2023/10/12 06:45:51;;;;;;;;;20.00;15.00;;;;;20.72;56.14;101103.06;5039222;28;45467;-71
2023/10/12 06:51:02;;;;;;;;;14.00;13.00;;;;;20.64;56.34;101134.38;5038413;28;45376;-72
2023/10/12 06:53:33;;;;;;;;;15.33;14.67;;;;;20.56;56.25;101123.13;5049736;28;45541;-72
2023/10/12 06:59:09;;;;;;;;;16.00;12.00;;;;;20.61;57.01;101155.78;5037613;28;45505;-72
2023/10/12 07:04:15;;;;;;;;;14.67;12.67;;;;;20.67;58.67;101192.84;5038644;28;45523;-72
2023/10/12 07:07:00;;;;;;;;;18.00;16.67;;;;;20.48;61.71;101155.28;5036507;28;45592;-75
2023/10/12 07:09:37;;;;;;;;;18.33;16.33;;;;;20.20;61.95;101130.47;5038232;28;45678;-72
2023/10/12 07:12:04;;;;;;;;;16.67;14.67;;;;;20.00;62.79;101129.28;5030144;28;45511;-72
2023/10/12 07:14:43;;;;;;;;;20.67;16.33;;;;;19.90;63.91;101149.97;5027948;28;45519;-70
2023/10/12 07:17:09;;;;;;;;;20.67;14.67;;;;;19.81;64.22;101163.56;5018327;28;45390;-73
2023/10/12 07:22:21;;;;;;;;;16.67;12.67;;;;;19.77;64.63;101138.00;5035178;28;46659;-70
2023/10/12 07:24:58;;;;;;;;;19.67;14.33;;;;;19.92;64.23;101144.63;5023461;28;45304;-70
2023/10/12 07:27:24;;;;;;;;;19.00;14.67;;;;;20.04;64.56;101154.00;5023829;28;45378;-70
2023/10/12 07:30:30;;;;;;;;;13.67;13.67;;;;;19.91;63.85;101129.59;5017245;28;45568;-71
2023/10/12 07:33:04;;;;;;;;;15.67;14.00;;;;;20.00;64.73;101165.66;5015889;28;45606;-71
2023/10/12 07:35:36;;;;;;;;;19.00;16.00;;;;;19.91;65.10;101175.66;5018312;28;45588;-69
2023/10/12 07:38:12;;;;;;;;;17.33;16.00;;;;;19.93;64.81;101170.28;5017034;28;45417;-71
2023/10/12 07:40:56;;;;;;;;;23.00;16.33;;;;;19.84;64.97;101150.19;5024067;28;45529;-72
2023/10/12 07:43:24;;;;;;;;;16.00;15.00;;;;;19.93;65.45;101149.00;5019282;28;45374;-70
2023/10/12 07:45:50;;;;;;;;;14.33;14.33;;;;;19.87;64.40;101136.78;5019320;28;45525;-69
2023/10/12 07:51:16;;;;;;;;;16.67;15.33;;;;;20.21;64.94;101178.28;5029446;28;45375;-72
2023/10/12 07:53:50;;;;;;;;;17.33;16.00;;;;;20.10;65.15;101181.28;5028949;28;47764;-71
2023/10/12 07:56:16;;;;;;;;;17.00;16.33;;;;;19.95;65.26;101151.63;5050407;28;45508;-73
2023/10/12 07:58:57;;;;;;;;;20.67;16.67;;;;;20.13;64.90;101178.53;5035016;28;45565;-71
2023/10/12 08:03:59;;;;;;;;;17.67;12.67;;;;;20.08;64.96;101163.66;5017168;28;45443;-75
2023/10/12 08:09:19;;;;;;;;;18.33;15.67;;;;;20.39;64.82;101189.28;5018597;28;45361;-74
2023/10/12 08:11:45;;;;;;;;;12.67;11.33;;;;;20.14;64.99;101166.09;5017837;28;45463;-76
2023/10/12 08:20:43;;;;;;;;;15.67;13.67;;;;;20.17;65.28;101179.31;5018912;28;45315;-72
2023/10/12 08:22:41;;;;;;;;;16.33;14.00;;;;;20.12;64.69;101158.19;5016862;28;45568;-73
2023/10/12 08:25:07;;;;;;;;;19.00;15.00;;;;;20.31;64.87;101182.44;5025234;28;45496;-73
2023/10/12 08:27:53;;;;;;;;;16.00;12.33;;;;;20.06;65.05;101144.22;5037194;28;45449;-74
2023/10/12 08:30:23;;;;;;;;;15.33;13.00;;;;;20.00;64.50;101123.13;5038705;28;45219;-75
2023/10/12 08:32:58;;;;;;;;;17.33;14.33;;;;;20.01;64.53;101127.53;5028443;28;45552;-72
2023/10/12 08:38:16;;;;;;;;;16.33;16.33;;;;;20.28;65.09;101155.03;5009351;28;45530;-76
2023/10/12 08:41:20;;;;;;;;;19.67;13.00;;;;;20.32;64.45;101165.53;5030725;28;45452;-74
2023/10/12 08:43:45;;;;;;;;;17.33;15.00;;;;;20.56;64.62;101186.13;5020911;28;45458;-78
2023/10/12 08:46:12;;;;;;;;;20.33;16.67;;;;;20.61;63.81;101190.38;5020251;28;45460;-75
2023/10/12 08:48:52;;;;;;;;;21.00;18.00;;;;;20.41;64.95;101160.84;5026457;28;45404;-77
2023/10/12 08:51:28;;;;;;;;;20.67;17.33;;;;;20.03;64.57;101120.38;5027218;28;45371;-75
2023/10/12 08:54:00;;;;;;;;;19.00;17.00;;;;;19.92;64.51;101107.41;5020836;28;45581;-72
2023/10/12 08:56:32;;;;;;;;;16.67;15.33;;;;;19.96;65.08;101090.44;5039441;28;45756;-81
2023/10/12 08:59:05;;;;;;;;;28.33;21.67;;;;;20.38;64.89;101163.59;5042006;28;45526;-80
2023/10/12 09:01:35;;;;;;;;;22.67;20.00;;;;;20.38;65.76;101184.88;5029698;28;45266;-76
2023/10/12 09:04:03;;;;;;;;;27.00;20.33;;;;;20.31;64.73;101160.25;5021410;28;45446;-82
2023/10/12 09:09:01;;;;;;;;;31.33;24.00;;;;;20.26;64.35;101179.03;5021429;28;45512;-81
2023/10/12 09:11:38;;;;;;;;;22.00;20.67;;;;;20.16;63.86;101166.06;5021353;28;45440;-77
2023/10/12 09:14:16;;;;;;;;;21.00;19.00;;;;;20.16;64.29;101174.91;5047427;28;45516;-77
2023/10/12 09:16:43;;;;;;;;;21.67;17.33;;;;;20.21;63.93;101172.97;5032090;28;46513;-78
2023/10/12 09:19:28;;;;;;;;;22.33;18.67;;;;;20.19;63.87;101160.63;5022706;28;45572;-76
2023/10/12 09:22:00;;;;;;;;;25.67;21.33;;;;;20.27;63.29;101172.78;5019812;28;45468;-74
2023/10/12 09:24:37;;;;;;;;;25.00;21.00;;;;;20.40;62.79;101185.69;5022761;28;45667;-75
2023/10/12 09:27:12;;;;;;;;;19.33;16.00;;;;;20.33;62.70;101146.00;5038106;28;46375;-75
2023/10/12 09:29:57;;;;;;;;;24.33;19.00;;;;;20.39;62.74;101149.38;5039441;28;45459;-73
2023/10/12 09:32:26;;;;;;;;;25.00;20.00;;;;;20.56;61.95;101184.31;5026400;28;45199;-73
2023/10/12 09:37:45;;;;;;;;;27.33;22.00;;;;;19.74;62.19;101068.97;5019570;28;45507;-74
2023/10/12 09:40:24;;;;;;;;;24.33;19.33;;;;;20.00;62.95;101105.38;5021141;28;45556;-76
2023/10/12 09:42:59;;;;;;;;;17.67;17.67;;;;;20.07;62.39;101098.97;5034565;28;45658;-76
2023/10/12 09:45:27;;;;;;;;;21.00;19.67;;;;;20.60;62.42;101169.16;5027029;28;45366;-78
2023/10/12 09:47:55;;;;;;;;;21.00;18.00;;;;;20.46;62.12;101150.94;5039637;28;45467;-78
2023/10/12 09:50:27;;;;;;;;;26.67;19.67;;;;;20.72;62.33;101174.91;5020658;28;45421;-74
2023/10/12 09:52:57;;;;;;;;;21.67;20.67;;;;;20.70;62.03;101162.59;5019665;28;45630;-73
2023/10/12 09:55:32;;;;;;;;;18.67;15.67;;;;;20.25;61.82;101078.88;5034997;28;45771;-73
2023/10/12 09:58:12;;;;;;;;;22.67;19.67;;;;;20.70;61.78;101125.31;5020578;28;45784;-77
2023/10/12 10:00:55;;;;;;;;;21.67;18.67;;;;;20.64;62.00;101114.88;5022024;28;45344;-76
2023/10/12 10:03:24;;;;;;;;;21.00;16.67;;;;;20.44;61.88;101087.13;5049787;28;45375;-77
2023/10/12 10:06:03;;;;;;;;;23.00;21.00;;;;;20.71;61.83;101141.22;5033843;28;45249;-79
2023/10/12 10:08:30;;;;;;;;;23.00;17.33;;;;;21.01;61.76;101173.06;5048819;28;46760;-76
2023/10/12 10:10:57;;;;;;;;;24.00;20.67;;;;;21.11;61.46;101179.81;5019897;28;45327;-78
2023/10/12 10:13:55;;;;;;;;;25.33;21.67;;;;;21.18;61.79;101173.34;5023210;28;45425;-81
2023/10/12 10:16:21;;;;;;;;;21.00;18.33;;;;;21.14;61.73;101187.72;4987966;28;45523;-76
2023/10/12 10:19:13;;;;;;;;;16.33;15.33;;;;;20.68;62.03;101109.41;5032402;28;45472;-76
2023/10/12 10:21:49;;;;;;;;;19.33;17.67;;;;;21.22;61.60;101159.94;5020285;28;45395;-73
2023/10/12 10:24:22;;;;;;;;;18.67;17.33;;;;;21.37;61.61;101167.34;5020830;28;45523;-73
2023/10/12 10:26:59;;;;;;;;;20.67;18.00;;;;;21.14;61.18;101115.78;5034420;28;45544;-73
2023/10/12 10:29:53;;;;;;;;;19.67;16.33;;;;;21.62;60.71;101171.81;5035183;28;46147;-77
2023/10/12 10:32:23;;;;;;;;;18.33;17.67;;;;;21.57;60.96;101158.69;5039210;28;45367;-76
2023/10/12 10:34:55;;;;;;;;;23.33;18.00;;;;;21.63;61.09;101177.09;5038975;28;45508;-74
2023/10/12 10:37:59;;;;;;;;;20.00;19.33;;;;;21.80;59.95;101173.78;5038217;28;45355;-76
2023/10/12 10:40:44;;;;;;;;;18.33;17.00;;;;;21.89;60.18;101176.13;4923428;28;46056;-76
2023/10/12 10:43:15;;;;;;;;;21.67;17.67;;;;;21.84;60.16;101158.56;5035387;28;45263;-77
2023/10/12 10:46:06;;;;;;;;;17.33;16.67;;;;;21.31;59.89;101043.25;5043676;28;45262;-74
2023/10/12 10:48:30;;;;;;;;;23.00;18.33;;;;;21.72;59.51;101104.78;5044252;28;45528;-82
2023/10/12 10:50:56;;;;;;;;;27.00;21.33;;;;;21.81;59.85;101146.22;5041490;28;45595;-78
2023/10/12 10:53:26;;;;;;;;;17.33;17.33;;;;;22.06;59.95;101170.13;5039941;28;45364;-75
2023/10/12 10:55:53;;;;;;;;;21.33;17.33;;;;;22.19;59.58;101168.72;5045271;28;45352;-74
2023/10/12 10:58:22;;;;;;;;;21.00;18.00;;;;;21.75;59.31;101069.13;5036186;28;45524;-78
2023/10/12 11:00:56;;;;;;;;;22.00;20.33;;;;;21.95;59.05;101079.88;5037025;28;46283;-75
2023/10/12 11:03:22;;;;;;;;;19.67;16.33;;;;;22.16;58.20;101082.59;5039489;28;45605;-76
2023/10/12 11:05:48;;;;;;;;;17.00;15.67;;;;;22.55;58.01;101105.94;5043359;28;45281;-77
2023/10/12 11:08:26;;;;;;;;;19.67;16.33;;;;;23.06;57.51;101160.75;5038708;28;45615;-76
2023/10/12 11:13:38;;;;;;;;;24.00;20.33;;;;;23.04;57.96;101151.94;5034797;28;45484;-74
2023/10/12 11:18:54;;;;;;;;;19.67;15.67;;;;;23.15;57.41;101088.22;5024608;28;45441;-73
2023/10/12 11:21:21;;;;;;;;;22.33;19.00;;;;;23.41;57.23;101111.09;5038600;28;46351;-72
2023/10/12 11:23:50;;;;;;;;;24.33;20.00;;;;;23.80;56.37;101145.00;5023744;28;45728;-75
2023/10/12 11:26:20;;;;;;;;;24.67;22.00;;;;;23.65;56.56;101101.06;5053957;28;45432;-74
2023/10/12 11:29:07;;;;;;;;;21.33;19.33;;;;;23.88;56.79;101145.50;5041927;28;45225;-78
2023/10/12 11:31:36;;;;;;;;;16.00;16.00;;;;;23.57;57.03;101089.88;5034501;28;47750;-77
2023/10/12 11:34:11;;;;;;;;;23.00;20.33;;;;;24.16;56.19;101140.66;5030627;28;45476;-77
2023/10/12 11:36:38;;;;;;;;;23.00;20.67;;;;;24.44;56.16;101138.34;5030967;28;45444;-76
2023/10/12 11:39:16;;;;;;;;;17.33;15.67;;;;;23.95;56.20;101067.63;5038710;28;45575;-78
2023/10/12 11:42:02;;;;;;;;;20.67;18.67;;;;;23.76;56.58;101046.25;5040720;28;45456;-76
2023/10/12 11:44:42;;;;;;;;;24.67;19.67;;;;;24.55;56.41;101137.81;5052519;28;45462;-80
2023/10/12 11:47:08;;;;;;;;;28.33;25.00;;;;;24.31;57.20;101110.44;5028386;28;45354;-80
2023/10/12 11:49:49;;;;;;;;;25.00;19.67;;;;;24.36;57.49;101134.31;5042516;28;45421;-78
2023/10/12 11:52:29;;;;;;;;;21.33;19.33;;;;;24.09;57.76;101079.38;5040420;28;47615;-76
2023/10/12 11:55:06;;;;;;;;;24.00;21.33;;;;;23.93;57.99;101048.97;5034196;28;45470;-78
2023/10/12 11:57:43;;;;;;;;;14.67;13.33;;;;;24.46;58.06;101119.50;5038322;28;45290;-78
2023/10/12 12:00:26;;;;;;;;;18.00;17.67;;;;;24.29;58.54;101096.25;5038193;28;45738;-77
2023/10/12 12:02:57;;;;;;;;;23.00;19.67;;;;;23.95;59.46;101057.78;5039993;28;45382;-80
2023/10/12 12:05:25;;;;;;;;;26.00;18.33;;;;;24.26;59.29;101134.75;5038820;28;45420;-72
2023/10/12 12:07:51;;;;;;;;;27.00;18.33;;;;;23.97;58.96;101101.38;5038582;28;45477;-75
2023/10/12 12:10:38;;;;;;;;;17.00;15.67;;;;;23.46;59.26;101036.88;5036943;28;45322;-74
2023/10/12 12:13:12;;;;;;;;;16.67;15.67;;;;;23.82;59.85;101116.34;5039195;28;45282;-74
2023/10/12 12:15:43;;;;;;;;;17.67;15.33;;;;;23.64;60.72;101102.00;5039082;28;45416;-73
2023/10/12 12:18:19;;;;;;;;;19.00;19.00;;;;;23.68;59.97;101124.13;5035053;28;45524;-73
2023/10/12 12:20:49;;;;;;;;;18.67;17.00;;;;;23.61;60.44;101110.19;5025646;28;45461;-74
2023/10/12 12:23:15;;;;;;;;;22.33;18.00;;;;;23.59;60.92;101114.72;5026677;28;45501;-74
2023/10/12 12:25:44;;;;;;;;;16.33;14.67;;;;;23.42;61.12;101088.78;5036753;28;45457;-74
2023/10/12 12:28:14;;;;;;;;;15.67;15.67;;;;;23.16;60.57;101049.88;5052716;28;45516;-74
2023/10/12 12:30:51;;;;;;;;;15.67;15.00;;;;;23.41;60.71;101103.06;5037051;28;45330;-72
2023/10/12 12:33:17;;;;;;;;;16.00;15.00;;;;;23.13;61.21;101068.72;5017444;28;46193;-77
2023/10/12 12:35:47;;;;;;;;;22.33;15.00;;;;;23.10;61.13;101063.50;5025483;28;45356;-74
2023/10/12 12:40:59;;;;;;;;;19.67;14.67;;;;;23.38;61.76;101126.41;5017767;28;45292;-75
2023/10/12 12:43:25;;;;;;;;;15.67;15.33;;;;;23.24;62.15;101111.84;5027162;28;46617;-78
2023/10/12 12:45:52;;;;;;;;;15.00;12.67;;;;;23.19;62.58;101103.19;5037270;28;45303;-74
2023/10/12 12:48:22;;;;;;;;;14.33;12.67;;;;;22.89;62.12;101064.44;5035854;28;45524;-74
2023/10/12 12:50:50;;;;;;;;;13.33;13.33;;;;;23.33;61.88;101131.09;5017959;28;45456;-74
2023/10/12 12:53:19;;;;;;;;;18.67;14.67;;;;;23.13;62.18;101106.13;5036574;28;46072;-75
2023/10/12 12:55:46;;;;;;;;;16.00;14.67;;;;;23.26;62.33;101131.38;5021856;28;45481;-75
2023/10/12 12:58:16;;;;;;;;;20.33;14.67;;;;;23.17;62.93;101121.09;5034317;28;45792;-73
2023/10/12 13:00:42;;;;;;;;;17.67;15.67;;;;;23.26;62.27;101127.81;5038016;28;45436;-74
2023/10/12 13:03:09;;;;;;;;;13.33;12.33;;;;;22.76;63.36;101059.63;5039996;28;46329;-74
2023/10/12 13:05:35;;;;;;;;;15.33;14.67;;;;;22.78;63.24;101060.44;5023940;28;45453;-75
2023/10/12 13:08:01;;;;;;;;;18.00;15.67;;;;;23.13;63.72;101121.28;5038834;28;45330;-75
2023/10/12 13:10:26;;;;;;;;;13.67;13.00;;;;;22.89;62.93;101086.66;5036884;28;45403;-76
2023/10/12 13:12:53;;;;;;;;;16.67;11.00;;;;;22.82;63.07;101070.03;5052046;28;47211;-75
2023/10/12 13:15:21;;;;;;;;;14.67;13.00;;;;;23.04;63.28;101109.19;5032028;28;45424;-75
2023/10/12 13:17:47;;;;;;;;;15.67;11.33;;;;;22.92;62.91;101057.16;5033152;28;45440;-74